< < Back
Terminal Aerodrome Forecast


Current Version              Previous Versions:   1  2  3  4  5  6  7  8  9  

Terminal Aerodrome Forecast

041
FTUS44 KBMX 270129 AAB
TAFBHM
TAF AMD
KBHM 270129Z 2701/2724 VRB05KT P6SM SCT080 BKN250
     FM271500 30006KT P6SM SCT035 SCT250
     FM271900 30007KT P6SM VCTS BKN050CB=



Latest METAR

148
SAUS70 KWBC 271800 RRX
MTRBHM
METAR KBHM 271753Z 18004KT 10SM FEW046 33/23 A3007 RMK AO2 SLP172
T03280228 10339 20233 58020


USA.gov is the U.S. government's official web portal to all federal, state and local government web resources and services.